Time;durP1;ratioP1;P1;durP2;ratioP2;P2;SDS_P1;SDS_P2;PMS_P1;PMS_P2;Temp;Humidity;BMP_temperature;BMP_pressure;BME280_temperature;BME280_humidity;BME280_pressure;Samples;Min_cycle;Max_cycle;Signal;HPM_P1;HPM_P2
2021/01/12 00:00:10;;;;;;;;;;;7.20;77.10;;;;;;5098497;28;19957;-72
2021/01/12 00:02:37;;;;;;;;;;;7.10;78.20;;;;;;5116998;28;19931;-72
2021/01/12 00:05:04;;;;;;;;;;;7.20;77.20;;;;;;5099996;28;19924;-72
2021/01/12 00:07:30;;;;;;;;;;;7.10;77.90;;;;;;5117378;28;19931;-73
2021/01/12 00:09:57;;;;;;;;;;;7.10;78.30;;;;;;5100232;28;19915;-74
2021/01/12 00:12:44;;;;;;;;;;;7.00;78.60;;;;;;5067787;28;19924;-73
2021/01/12 00:15:33;;;;;;;;;;;7.10;77.90;;;;;;5102448;28;19930;-72
2021/01/12 00:17:59;;;;;;;;;;;7.30;77.30;;;;;;5118145;28;19930;-73
2021/01/12 00:20:25;;;;;;;;;;;7.30;76.90;;;;;;5101357;28;19908;-73
2021/01/12 00:22:52;;;;;;;;;;;7.30;77.00;;;;;;5119845;28;19932;-73
2021/01/12 00:25:18;;;;;;;;;;;7.20;77.20;;;;;;5118021;28;19959;-80
2021/01/12 00:27:53;;;;;;;;;;;7.20;77.20;;;;;;5116970;28;19924;-75
2021/01/12 00:30:20;;;;;;;;;;;7.20;77.50;;;;;;5119134;28;19971;-76
2021/01/12 00:32:46;;;;;;;;;;;7.20;77.70;;;;;;5117627;28;19908;-79
2021/01/12 00:35:12;;;;;;;;;;;7.30;76.80;;;;;;5117273;28;19946;-73
2021/01/12 00:37:38;;;;;;;;;;;7.40;76.50;;;;;;5116056;28;19924;-73
2021/01/12 00:40:05;;;;;;;;;;;7.40;76.40;;;;;;5115147;28;19928;-73
2021/01/12 00:42:31;;;;;;;;;;;7.30;77.20;;;;;;5116612;28;19924;-73
2021/01/12 00:44:57;;;;;;;;;;;7.30;76.80;;;;;;5115204;28;19924;-72
2021/01/12 00:47:38;;;;;;;;;;;7.20;77.40;;;;;;5099858;28;19914;-73
2021/01/12 00:50:04;;;;;;;;;;;7.30;77.30;;;;;;5112143;28;19981;-74
2021/01/12 00:52:31;;;;;;;;;;;7.20;77.90;;;;;;5113941;28;19924;-75
2021/01/12 00:54:57;;;;;;;;;;;7.40;77.20;;;;;;5096044;28;19946;-73
2021/01/12 00:57:23;;;;;;;;;;;7.40;77.40;;;;;;5115717;28;19928;-74
2021/01/12 00:59:50;;;;;;;;;;;7.50;77.50;;;;;;5116797;28;19915;-73
2021/01/12 01:02:16;;;;;;;;;;;7.40;78.60;;;;;;5115576;28;19946;-75
2021/01/12 01:04:42;;;;;;;;;;;7.40;78.90;;;;;;5116721;28;19924;-73
2021/01/12 01:07:08;;;;;;;;;;;7.40;78.90;;;;;;5118151;28;19908;-76
2021/01/12 01:09:35;;;;;;;;;;;7.40;79.20;;;;;;5118863;28;19908;-78
2021/01/12 01:12:01;;;;;;;;;;;7.40;79.40;;;;;;5118626;28;19924;-75
2021/01/12 01:14:27;;;;;;;;;;;7.40;78.90;;;;;;5114185;28;19927;-72
2021/01/12 01:16:53;;;;;;;;;;;7.50;78.90;;;;;;5112018;28;20450;-72
2021/01/12 01:19:20;;;;;;;;;;;7.60;78.10;;;;;;5111708;28;19924;-73
2021/01/12 01:21:46;;;;;;;;;;;7.80;77.70;;;;;;5112309;28;19908;-73
2021/01/12 01:24:12;;;;;;;;;;;7.70;77.40;;;;;;5111317;28;20395;-73
2021/01/12 01:26:39;;;;;;;;;;;7.80;76.90;;;;;;5107017;28;20402;-72
2021/01/12 01:29:05;;;;;;;;;;;7.70;77.10;;;;;;5106866;28;20265;-73
2021/01/12 01:31:38;;;;;;;;;;;7.80;76.80;;;;;;5104259;28;19931;-73
2021/01/12 01:34:04;;;;;;;;;;;7.90;76.50;;;;;;5110900;28;19970;-73
2021/01/12 01:36:31;;;;;;;;;;;7.90;76.40;;;;;;5111577;28;19932;-72
2021/01/12 01:38:57;;;;;;;;;;;7.80;76.20;;;;;;5111801;28;19924;-73
2021/01/12 01:41:23;;;;;;;;;;;7.90;76.20;;;;;;5112079;28;19994;-72
2021/01/12 01:43:49;;;;;;;;;;;7.80;76.30;;;;;;5111424;28;19924;-72
2021/01/12 01:46:16;;;;;;;;;;;7.80;76.60;;;;;;5091546;28;20429;-72
2021/01/12 01:48:42;;;;;;;;;;;7.70;77.40;;;;;;5105928;28;19925;-72
2021/01/12 01:51:08;;;;;;;;;;;7.80;76.80;;;;;;5106655;28;19924;-72
2021/01/12 01:53:35;;;;;;;;;;;7.80;77.00;;;;;;5102988;28;20019;-72
2021/01/12 01:56:06;;;;;;;;;;;7.60;77.50;;;;;;5101847;28;19924;-72
2021/01/12 01:58:43;;;;;;;;;;;7.70;77.20;;;;;;5098809;28;19908;-72
2021/01/12 02:01:10;;;;;;;;;;;7.80;77.00;;;;;;5096660;28;19988;-73
2021/01/12 02:03:48;;;;;;;;;;;7.70;77.80;;;;;;5078027;28;20380;-72
2021/01/12 02:06:17;;;;;;;;;;;7.60;78.30;;;;;;5061805;28;19928;-71
2021/01/12 02:08:59;;;;;;;;;;;7.50;79.20;;;;;;5098249;28;19930;-72
2021/01/12 02:11:27;;;;;;;;;;;7.50;79.40;;;;;;5099328;28;20038;-73
2021/01/12 02:14:03;;;;;;;;;;;7.60;79.30;;;;;;5097899;28;20125;-72
2021/01/12 02:16:30;;;;;;;;;;;7.40;79.80;;;;;;5098007;28;20022;-73
2021/01/12 02:18:59;;;;;;;;;;;7.50;79.90;;;;;;5080065;28;20019;-72
2021/01/12 02:21:26;;;;;;;;;;;7.50;79.90;;;;;;5109021;28;20444;-73
2021/01/12 02:23:56;;;;;;;;;;;7.60;79.60;;;;;;5118154;28;19924;-72
2021/01/12 02:26:23;;;;;;;;;;;7.70;79.10;;;;;;5120951;28;19924;-73
2021/01/12 02:28:49;;;;;;;;;;;7.70;79.20;;;;;;5103789;28;19908;-73
2021/01/12 02:31:16;;;;;;;;;;;7.60;80.70;;;;;;5121198;28;19924;-74
2021/01/12 02:33:45;;;;;;;;;;;7.50;80.40;;;;;;5121083;28;19931;-73
2021/01/12 02:36:12;;;;;;;;;;;7.50;80.60;;;;;;5120157;28;19915;-72
2021/01/12 02:38:38;;;;;;;;;;;7.60;80.20;;;;;;5121563;28;19909;-73
2021/01/12 02:41:09;;;;;;;;;;;7.70;80.10;;;;;;5121161;28;19927;-72
2021/01/12 02:43:35;;;;;;;;;;;7.60;80.30;;;;;;5119364;28;19967;-72
2021/01/12 02:46:01;;;;;;;;;;;7.60;80.30;;;;;;5117985;28;19929;-72
2021/01/12 02:48:28;;;;;;;;;;;7.80;79.70;;;;;;5116895;28;19928;-72
2021/01/12 02:50:54;;;;;;;;;;;7.60;80.20;;;;;;5115683;28;19924;-72
2021/01/12 02:53:20;;;;;;;;;;;7.70;80.10;;;;;;5114466;28;20410;-72
2021/01/12 02:55:46;;;;;;;;;;;7.80;79.80;;;;;;5117072;28;19915;-72
2021/01/12 02:58:12;;;;;;;;;;;7.80;79.30;;;;;;5120376;28;19908;-73
2021/01/12 03:00:39;;;;;;;;;;;7.90;79.10;;;;;;5117529;28;19915;-73
2021/01/12 03:03:05;;;;;;;;;;;7.90;79.00;;;;;;5101131;28;19928;-73
2021/01/12 03:05:32;;;;;;;;;;;7.90;79.10;;;;;;5118979;28;19908;-74
2021/01/12 03:07:58;;;;;;;;;;;7.80;79.60;;;;;;5119677;28;19916;-73
2021/01/12 03:10:24;;;;;;;;;;;8.00;78.80;;;;;;5119856;28;19935;-73
2021/01/12 03:12:51;;;;;;;;;;;7.70;79.90;;;;;;5116400;28;19932;-73
2021/01/12 03:15:17;;;;;;;;;;;7.70;80.30;;;;;;5101776;28;19908;-74
2021/01/12 03:17:43;;;;;;;;;;;7.80;79.70;;;;;;5119947;28;19915;-74
2021/01/12 03:20:10;;;;;;;;;;;7.70;79.70;;;;;;5121343;28;19940;-73
2021/01/12 03:22:36;;;;;;;;;;;7.80;80.20;;;;;;5118521;28;19915;-73
2021/01/12 03:25:02;;;;;;;;;;;7.90;79.70;;;;;;5116620;28;19930;-73
2021/01/12 03:27:29;;;;;;;;;;;7.90;79.40;;;;;;5115774;28;19917;-73
2021/01/12 03:29:55;;;;;;;;;;;7.90;81.50;;;;;;5097500;28;19968;-73
2021/01/12 03:32:21;;;;;;;;;;;7.90;85.20;;;;;;5116062;28;19959;-72
2021/01/12 03:34:48;;;;;;;;;;;7.60;88.30;;;;;;5116138;28;19908;-73
2021/01/12 03:37:14;;;;;;;;;;;7.30;91.20;;;;;;5115786;28;19963;-74
2021/01/12 03:39:41;;;;;;;;;;;7.20;89.10;;;;;;5116356;28;19952;-73
2021/01/12 03:42:07;;;;;;;;;;;7.30;90.80;;;;;;5116634;28;19983;-72
2021/01/12 03:44:33;;;;;;;;;;;7.30;91.40;;;;;;5118234;28;19968;-72
2021/01/12 03:47:00;;;;;;;;;;;7.20;91.80;;;;;;5118583;28;19944;-73
2021/01/12 03:49:26;;;;;;;;;;;7.20;91.50;;;;;;5118845;28;19908;-73
2021/01/12 03:51:52;;;;;;;;;;;7.20;93.50;;;;;;5119921;28;19908;-78
2021/01/12 03:54:18;;;;;;;;;;;7.20;92.30;;;;;;5115815;28;19924;-73
2021/01/12 03:56:44;;;;;;;;;;;7.20;92.10;;;;;;5107023;28;19963;-73
2021/01/12 03:59:11;;;;;;;;;;;7.10;91.60;;;;;;5105939;28;19924;-72
2021/01/12 04:01:43;;;;;;;;;;;7.10;92.00;;;;;;5110895;28;19946;-73
2021/01/12 04:04:10;;;;;;;;;;;7.20;92.10;;;;;;5107380;28;19940;-72
2021/01/12 04:06:37;;;;;;;;;;;7.10;91.10;;;;;;5106560;28;19950;-72
2021/01/12 04:09:03;;;;;;;;;;;7.30;91.60;;;;;;5110441;28;19988;-74
2021/01/12 04:11:34;;;;;;;;;;;7.30;91.60;;;;;;5119576;28;19908;-73
2021/01/12 04:14:01;;;;;;;;;;;7.30;92.20;;;;;;5101261;28;19908;-73
2021/01/12 04:16:28;;;;;;;;;;;7.30;92.70;;;;;;5116299;28;19970;-72
2021/01/12 04:18:54;;;;;;;;;;;7.10;93.00;;;;;;5111913;28;19924;-72
2021/01/12 04:21:20;;;;;;;;;;;7.10;94.70;;;;;;5108559;28;20373;-72
2021/01/12 04:23:47;;;;;;;;;;;6.70;95.10;;;;;;5108277;28;20291;-72
2021/01/12 04:26:13;;;;;;;;;;;6.80;94.30;;;;;;5109104;28;19947;-73
2021/01/12 04:28:39;;;;;;;;;;;6.90;94.80;;;;;;5103609;28;19924;-72
2021/01/12 04:31:05;;;;;;;;;;;6.90;93.80;;;;;;5100394;28;19928;-72
2021/01/12 04:33:31;;;;;;;;;;;7.00;94.70;;;;;;5102789;28;19931;-73
2021/01/12 04:35:58;;;;;;;;;;;7.10;93.40;;;;;;5105839;28;19970;-72
2021/01/12 04:38:24;;;;;;;;;;;7.10;93.90;;;;;;5102891;28;20022;-72
2021/01/12 04:40:50;;;;;;;;;;;7.00;92.60;;;;;;5109254;28;19924;-77
2021/01/12 04:43:17;;;;;;;;;;;7.00;92.20;;;;;;5111907;28;19924;-80
2021/01/12 04:45:43;;;;;;;;;;;7.20;93.40;;;;;;5110102;28;19924;-80
2021/01/12 04:48:09;;;;;;;;;;;7.20;92.60;;;;;;5111132;28;19939;-75
2021/01/12 04:50:35;;;;;;;;;;;7.20;92.40;;;;;;5109505;28;20426;-79
2021/01/12 04:53:01;;;;;;;;;;;7.20;92.80;;;;;;5109972;28;19928;-75
2021/01/12 04:55:27;;;;;;;;;;;7.20;92.70;;;;;;5108279;28;19928;-79
2021/01/12 04:57:54;;;;;;;;;;;7.20;93.50;;;;;;5104530;28;19979;-80
2021/01/12 05:00:23;;;;;;;;;;;7.20;92.90;;;;;;5098302;28;19928;-78
2021/01/12 05:02:58;;;;;;;;;;;7.20;92.20;;;;;;5099384;28;19970;-73
2021/01/12 05:05:32;;;;;;;;;;;7.20;92.10;;;;;;5113996;28;19928;-79
2021/01/12 05:08:02;;;;;;;;;;;7.30;92.20;;;;;;5113374;28;19976;-81
2021/01/12 05:10:30;;;;;;;;;;;7.40;91.70;;;;;;5113032;28;19928;-80
2021/01/12 05:12:57;;;;;;;;;;;7.20;92.90;;;;;;5110081;28;19967;-79
2021/01/12 05:15:24;;;;;;;;;;;7.30;91.40;;;;;;5111376;28;19951;-79
2021/01/12 05:17:52;;;;;;;;;;;7.30;92.20;;;;;;5110787;28;19970;-72
2021/01/12 05:20:22;;;;;;;;;;;7.30;92.30;;;;;;5108653;28;19959;-79
2021/01/12 05:22:54;;;;;;;;;;;7.40;92.20;;;;;;5089938;28;19924;-79
2021/01/12 05:25:21;;;;;;;;;;;7.30;91.60;;;;;;5104450;28;19962;-73
2021/01/12 05:27:51;;;;;;;;;;;7.40;91.10;;;;;;5106691;28;19931;-79
2021/01/12 05:30:24;;;;;;;;;;;7.30;91.30;;;;;;5106881;28;19959;-77
2021/01/12 05:32:56;;;;;;;;;;;7.40;93.40;;;;;;5108344;28;19995;-73
2021/01/12 05:35:25;;;;;;;;;;;7.40;92.10;;;;;;5108106;28;19924;-75
2021/01/12 05:38:02;;;;;;;;;;;7.50;92.30;;;;;;5108207;28;19967;-73
2021/01/12 05:40:30;;;;;;;;;;;7.40;92.10;;;;;;5108163;28;20014;-75
2021/01/12 05:43:06;;;;;;;;;;;7.40;92.50;;;;;;5112803;28;19947;-78
2021/01/12 05:45:33;;;;;;;;;;;7.30;92.00;;;;;;5111945;28;20011;-78
2021/01/12 05:48:00;;;;;;;;;;;7.40;92.60;;;;;;5109799;28;19924;-78
2021/01/12 05:50:28;;;;;;;;;;;7.50;92.10;;;;;;5097648;28;19978;-74
2021/01/12 05:53:01;;;;;;;;;;;7.50;91.50;;;;;;5097035;28;20410;-77
2021/01/12 05:55:30;;;;;;;;;;;7.50;91.50;;;;;;5096829;28;19924;-73
2021/01/12 05:58:02;;;;;;;;;;;7.50;90.50;;;;;;5096066;28;19997;-78
2021/01/12 06:00:31;;;;;;;;;;;7.50;90.10;;;;;;5096503;28;19967;-78
2021/01/12 06:03:02;;;;;;;;;;;7.60;90.10;;;;;;5078810;28;20385;-79
2021/01/12 06:05:32;;;;;;;;;;;7.60;90.10;;;;;;5098761;28;20016;-77
2021/01/12 06:07:59;;;;;;;;;;;7.70;89.10;;;;;;5078446;28;19924;-77
2021/01/12 06:10:25;;;;;;;;;;;7.70;89.00;;;;;;5096448;28;19973;-76
2021/01/12 06:12:55;;;;;;;;;;;7.70;89.10;;;;;;5097699;28;19947;-77
2021/01/12 06:15:26;;;;;;;;;;;7.70;89.40;;;;;;5107223;28;19967;-74
2021/01/12 06:17:56;;;;;;;;;;;7.80;89.60;;;;;;5111534;28;19924;-72
2021/01/12 06:20:28;;;;;;;;;;;7.90;88.40;;;;;;5112031;28;19936;-72
2021/01/12 06:22:56;;;;;;;;;;;7.70;89.30;;;;;;5112385;28;19955;-72
2021/01/12 06:25:23;;;;;;;;;;;7.70;89.30;;;;;;5116277;28;20421;-72
2021/01/12 06:27:49;;;;;;;;;;;7.90;89.00;;;;;;5112676;28;19924;-72
2021/01/12 06:30:17;;;;;;;;;;;7.80;89.40;;;;;;5114145;28;20395;-71
2021/01/12 06:32:44;;;;;;;;;;;7.90;88.90;;;;;;5115286;28;20319;-71
2021/01/12 06:35:10;;;;;;;;;;;7.90;88.90;;;;;;5099494;28;19931;-72
2021/01/12 06:37:38;;;;;;;;;;;7.80;89.30;;;;;;5100802;28;19931;-73
2021/01/12 06:40:07;;;;;;;;;;;7.90;88.90;;;;;;5112472;28;19923;-73
2021/01/12 06:42:34;;;;;;;;;;;8.00;88.80;;;;;;5096909;28;19969;-74
2021/01/12 06:45:00;;;;;;;;;;;8.00;88.80;;;;;;5100849;28;20430;-77
2021/01/12 06:47:27;;;;;;;;;;;8.00;88.60;;;;;;5096555;28;19924;-74
2021/01/12 06:50:10;;;;;;;;;;;8.00;88.80;;;;;;5095641;28;19962;-76
2021/01/12 06:52:56;;;;;;;;;;;8.10;88.50;;;;;;5105020;28;19924;-73
2021/01/12 06:55:22;;;;;;;;;;;8.10;88.30;;;;;;5092218;28;19991;-73
2021/01/12 06:57:49;;;;;;;;;;;8.10;88.70;;;;;;5095343;28;19931;-73
2021/01/12 07:00:16;;;;;;;;;;;8.10;88.70;;;;;;5113558;28;19932;-72
2021/01/12 07:02:43;;;;;;;;;;;8.20;88.60;;;;;;5112825;28;19952;-72
2021/01/12 07:05:10;;;;;;;;;;;8.30;88.20;;;;;;5110856;28;19955;-72
2021/01/12 07:07:38;;;;;;;;;;;8.20;88.20;;;;;;5109069;28;19970;-73
2021/01/12 07:10:11;;;;;;;;;;;8.20;88.30;;;;;;5104804;28;19924;-78
2021/01/12 07:12:38;;;;;;;;;;;8.30;88.20;;;;;;5099594;28;19924;-76
2021/01/12 07:15:08;;;;;;;;;;;8.40;88.30;;;;;;5102510;28;19978;-78
2021/01/12 07:17:39;;;;;;;;;;;8.40;88.40;;;;;;5099860;28;20018;-72
2021/01/12 07:20:11;;;;;;;;;;;8.30;90.50;;;;;;5104055;28;19924;-74
2021/01/12 07:22:38;;;;;;;;;;;8.20;90.10;;;;;;5113796;28;19932;-70
2021/01/12 07:25:08;;;;;;;;;;;8.20;90.20;;;;;;5143480;27;19967;-79
2021/01/12 07:27:35;;;;;;;;;;;8.20;91.30;;;;;;5147513;27;19976;-77
2021/01/12 07:30:05;;;;;;;;;;;8.10;90.30;;;;;;5142371;27;20014;-77
2021/01/12 07:32:33;;;;;;;;;;;8.30;90.50;;;;;;5144894;27;20010;-74
2021/01/12 07:35:00;;;;;;;;;;;8.30;90.30;;;;;;5147109;27;19945;-73
2021/01/12 07:37:28;;;;;;;;;;;8.30;90.00;;;;;;5119410;27;20374;-73
2021/01/12 07:39:55;;;;;;;;;;;8.40;90.20;;;;;;5138296;27;20026;-70
2021/01/12 07:42:21;;;;;;;;;;;8.40;90.00;;;;;;5137310;27;19958;-72
2021/01/12 07:44:47;;;;;;;;;;;8.30;90.50;;;;;;5137743;27;19978;-70
2021/01/12 07:47:14;;;;;;;;;;;8.20;90.90;;;;;;5145200;27;19924;-77
2021/01/12 07:49:41;;;;;;;;;;;8.30;91.10;;;;;;5155071;27;19945;-73
2021/01/12 07:52:08;;;;;;;;;;;8.30;90.90;;;;;;5154570;27;19967;-80
2021/01/12 07:54:35;;;;;;;;;;;8.30;91.50;;;;;;5132968;27;19923;-79
2021/01/12 07:57:02;;;;;;;;;;;8.10;91.40;;;;;;5150162;27;19928;-76
2021/01/12 07:59:29;;;;;;;;;;;8.20;91.00;;;;;;5148404;27;19945;-72
2021/01/12 08:01:56;;;;;;;;;;;8.30;90.60;;;;;;5142782;27;19931;-72
2021/01/12 08:04:25;;;;;;;;;;;8.40;90.20;;;;;;5138978;27;19995;-73
2021/01/12 08:06:52;;;;;;;;;;;8.40;90.50;;;;;;5141428;27;19924;-71
2021/01/12 08:09:21;;;;;;;;;;;8.40;89.80;;;;;;5139125;27;20454;-69
2021/01/12 08:11:59;;;;;;;;;;;8.50;89.30;;;;;;5138793;27;19946;-72
2021/01/12 08:14:26;;;;;;;;;;;8.40;89.80;;;;;;5137564;27;19948;-77
2021/01/12 08:16:53;;;;;;;;;;;8.40;89.30;;;;;;5138930;27;19973;-75
2021/01/12 08:19:20;;;;;;;;;;;8.60;90.40;;;;;;5118805;27;19928;-72
2021/01/12 08:21:47;;;;;;;;;;;8.60;89.30;;;;;;5136002;27;19923;-76
2021/01/12 08:24:18;;;;;;;;;;;8.60;90.00;;;;;;5123104;27;19924;-73
2021/01/12 08:26:45;;;;;;;;;;;8.60;89.70;;;;;;5145047;27;20408;-77
2021/01/12 08:29:12;;;;;;;;;;;8.70;89.20;;;;;;5139486;27;20026;-72
2021/01/12 08:31:44;;;;;;;;;;;8.70;88.60;;;;;;5136136;27;19948;-73
2021/01/12 08:34:14;;;;;;;;;;;8.70;89.20;;;;;;5119541;27;19948;-77
2021/01/12 08:36:41;;;;;;;;;;;8.60;89.80;;;;;;5135723;27;20347;-74
2021/01/12 08:39:24;;;;;;;;;;;8.60;89.40;;;;;;5135046;27;20007;-78
2021/01/12 08:41:51;;;;;;;;;;;8.70;88.60;;;;;;5135627;27;20025;-77
2021/01/12 08:44:17;;;;;;;;;;;8.80;88.30;;;;;;5135418;27;20511;-74
2021/01/12 08:46:44;;;;;;;;;;;8.80;88.40;;;;;;5118686;27;19999;-79
2021/01/12 08:49:10;;;;;;;;;;;8.90;88.30;;;;;;5143009;27;19923;-78
2021/01/12 08:51:37;;;;;;;;;;;8.90;88.00;;;;;;5140669;27;19979;-78
2021/01/12 08:54:03;;;;;;;;;;;8.90;88.40;;;;;;5137383;27;19934;-73
2021/01/12 08:56:29;;;;;;;;;;;8.90;87.80;;;;;;5140911;27;19923;-79
2021/01/12 08:59:06;;;;;;;;;;;9.00;87.60;;;;;;5139367;27;19931;-73
2021/01/12 09:01:33;;;;;;;;;;;8.90;88.00;;;;;;5138201;27;19923;-75
2021/01/12 09:04:06;;;;;;;;;;;9.00;87.60;;;;;;5137359;27;19977;-78
2021/01/12 09:06:33;;;;;;;;;;;9.00;87.60;;;;;;5118593;27;19933;-77
2021/01/12 09:09:06;;;;;;;;;;;8.90;88.00;;;;;;5138412;27;19953;-79
2021/01/12 09:11:35;;;;;;;;;;;8.80;88.40;;;;;;5135967;27;20395;-71
2021/01/12 09:14:05;;;;;;;;;;;8.90;88.20;;;;;;5136622;28;19950;-76
2021/01/12 09:16:32;;;;;;;;;;;9.00;88.20;;;;;;5138179;27;19930;-78
2021/01/12 09:18:59;;;;;;;;;;;9.10;87.30;;;;;;5139663;28;19927;-76
2021/01/12 09:21:25;;;;;;;;;;;9.20;87.20;;;;;;5138664;28;19928;-78
2021/01/12 09:23:52;;;;;;;;;;;9.20;87.60;;;;;;5139118;28;19935;-77
2021/01/12 09:26:21;;;;;;;;;;;9.20;88.00;;;;;;5139662;28;19948;-75
2021/01/12 09:28:49;;;;;;;;;;;9.20;88.40;;;;;;5105524;28;19958;-79
2021/01/12 09:31:17;;;;;;;;;;;9.20;89.10;;;;;;5140151;28;20039;-79
2021/01/12 09:33:44;;;;;;;;;;;9.10;89.50;;;;;;5122849;28;19927;-77
2021/01/12 09:36:14;;;;;;;;;;;9.30;89.40;;;;;;5138652;28;19945;-78
2021/01/12 09:38:45;;;;;;;;;;;9.20;89.00;;;;;;5118061;28;20030;-74
2021/01/12 09:41:12;;;;;;;;;;;9.00;90.30;;;;;;5135924;28;19924;-70
2021/01/12 09:43:38;;;;;;;;;;;9.10;90.60;;;;;;5135093;28;19923;-75
2021/01/12 09:46:05;;;;;;;;;;;9.20;90.50;;;;;;5135089;28;19970;-69
2021/01/12 09:48:31;;;;;;;;;;;9.20;89.70;;;;;;5134742;28;19955;-70
2021/01/12 09:50:57;;;;;;;;;;;9.10;90.20;;;;;;5134072;28;20018;-72
2021/01/12 09:53:24;;;;;;;;;;;9.20;89.60;;;;;;5134581;28;19928;-72
2021/01/12 09:55:50;;;;;;;;;;;9.40;90.10;;;;;;5134548;28;20386;-71
2021/01/12 09:58:24;;;;;;;;;;;9.30;90.60;;;;;;5136697;28;20382;-71
2021/01/12 10:00:50;;;;;;;;;;;9.00;91.10;;;;;;5138650;28;19986;-78
2021/01/12 10:03:16;;;;;;;;;;;9.10;91.80;;;;;;5139123;28;19934;-75
2021/01/12 10:05:42;;;;;;;;;;;9.20;91.00;;;;;;5139422;28;19971;-77
2021/01/12 10:08:09;;;;;;;;;;;9.30;91.00;;;;;;5138727;28;19923;-77
2021/01/12 10:10:35;;;;;;;;;;;9.40;90.80;;;;;;5137758;28;19977;-70
2021/01/12 10:13:02;;;;;;;;;;;9.20;90.70;;;;;;5138909;28;19977;-80
2021/01/12 10:15:29;;;;;;;;;;;9.40;91.70;;;;;;5138398;28;19939;-79
2021/01/12 10:17:55;;;;;;;;;;;9.50;90.60;;;;;;5138103;28;19980;-78
2021/01/12 10:20:21;;;;;;;;;;;9.40;90.40;;;;;;5138653;28;19923;-78
2021/01/12 10:22:48;;;;;;;;;;;9.40;89.90;;;;;;5138038;28;20010;-79
2021/01/12 10:25:14;;;;;;;;;;;9.60;90.10;;;;;;5136686;28;20032;-76
2021/01/12 10:27:41;;;;;;;;;;;9.70;89.00;;;;;;5119023;28;20407;-79
2021/01/12 10:30:09;;;;;;;;;;;9.80;88.70;;;;;;5142413;27;20007;-77
2021/01/12 10:32:35;;;;;;;;;;;9.80;88.60;;;;;;5126673;27;19923;-76
2021/01/12 10:35:03;;;;;;;;;;;9.70;87.80;;;;;;5142249;27;19935;-76
2021/01/12 10:37:29;;;;;;;;;;;9.80;87.90;;;;;;5141810;27;19938;-75
2021/01/12 10:39:55;;;;;;;;;;;9.90;88.00;;;;;;5124584;27;19928;-78
2021/01/12 10:42:22;;;;;;;;;;;9.90;88.40;;;;;;5142111;27;19927;-77
2021/01/12 10:44:48;;;;;;;;;;;9.90;87.70;;;;;;5142051;27;19945;-77
2021/01/12 10:47:14;;;;;;;;;;;9.90;88.90;;;;;;5143243;27;20352;-79
2021/01/12 10:49:41;;;;;;;;;;;9.90;89.00;;;;;;5142142;27;20279;-78
2021/01/12 10:52:07;;;;;;;;;;;10.00;89.40;;;;;;5140358;27;19923;-77
2021/01/12 10:54:33;;;;;;;;;;;9.90;89.60;;;;;;5141234;27;19945;-80
2021/01/12 10:57:00;;;;;;;;;;;9.90;89.40;;;;;;5140564;27;20381;-75
2021/01/12 10:59:26;;;;;;;;;;;9.70;90.30;;;;;;5140273;27;20010;-78
2021/01/12 11:01:57;;;;;;;;;;;9.70;90.10;;;;;;5138998;27;20299;-73
2021/01/12 11:04:37;;;;;;;;;;;9.80;90.30;;;;;;5137561;27;19927;-76
2021/01/12 11:07:04;;;;;;;;;;;10.00;90.10;;;;;;5121034;27;19923;-78
2021/01/12 11:09:31;;;;;;;;;;;10.10;90.80;;;;;;5138980;27;20383;-76
2021/01/12 11:12:04;;;;;;;;;;;9.90;90.20;;;;;;5138239;27;19923;-75
2021/01/12 11:14:30;;;;;;;;;;;10.00;90.40;;;;;;5139271;27;19958;-75
2021/01/12 11:16:57;;;;;;;;;;;9.90;90.30;;;;;;5138974;27;20395;-73
2021/01/12 11:19:24;;;;;;;;;;;9.80;90.30;;;;;;5121922;27;19945;-78
2021/01/12 11:21:50;;;;;;;;;;;9.90;90.60;;;;;;5139792;27;19967;-78
2021/01/12 11:24:22;;;;;;;;;;;9.90;90.20;;;;;;5139821;27;19962;-74
2021/01/12 11:26:49;;;;;;;;;;;9.80;90.90;;;;;;5140871;27;20344;-77
2021/01/12 11:29:15;;;;;;;;;;;10.00;90.80;;;;;;5141845;27;19990;-78
2021/01/12 11:31:42;;;;;;;;;;;9.80;90.50;;;;;;5142114;27;20019;-79
2021/01/12 11:34:09;;;;;;;;;;;9.90;90.30;;;;;;5142281;27;19931;-79
2021/01/12 11:36:42;;;;;;;;;;;9.90;90.10;;;;;;5141765;27;19963;-71
2021/01/12 11:39:09;;;;;;;;;;;10.00;90.10;;;;;;5142776;27;19924;-80
2021/01/12 11:41:36;;;;;;;;;;;10.20;90.10;;;;;;5142295;27;19928;-72
2021/01/12 11:44:03;;;;;;;;;;;10.30;90.70;;;;;;5139633;27;19923;-72
2021/01/12 11:46:30;;;;;;;;;;;10.30;89.80;;;;;;5138878;27;19924;-72
2021/01/12 11:48:56;;;;;;;;;;;10.10;91.20;;;;;;5138749;27;19932;-72
2021/01/12 11:51:34;;;;;;;;;;;10.20;91.40;;;;;;5140194;27;20014;-73
2021/01/12 11:54:00;;;;;;;;;;;10.20;90.60;;;;;;5141515;27;19957;-70
2021/01/12 11:56:26;;;;;;;;;;;10.20;90.90;;;;;;5127800;27;19990;-78
2021/01/12 11:58:52;;;;;;;;;;;10.20;90.50;;;;;;5147085;27;19931;-76
2021/01/12 12:01:19;;;;;;;;;;;10.40;91.10;;;;;;5143679;27;19959;-77
2021/01/12 12:03:45;;;;;;;;;;;10.40;91.10;;;;;;5144417;27;19930;-77
2021/01/12 12:06:12;;;;;;;;;;;10.50;91.10;;;;;;5144011;27;19962;-77
2021/01/12 12:08:42;;;;;;;;;;;10.50;91.60;;;;;;5141702;27;19979;-79
2021/01/12 12:11:09;;;;;;;;;;;10.40;90.90;;;;;;5142318;27;19923;-75
2021/01/12 12:13:39;;;;;;;;;;;10.40;91.70;;;;;;5142248;27;19924;-77
2021/01/12 12:16:12;;;;;;;;;;;10.30;91.00;;;;;;5145922;27;19923;-78
2021/01/12 12:18:42;;;;;;;;;;;10.50;91.70;;;;;;5144996;27;19923;-74
2021/01/12 12:21:13;;;;;;;;;;;10.50;91.10;;;;;;5149051;27;19929;-74
2021/01/12 12:23:40;;;;;;;;;;;10.50;91.20;;;;;;5131987;27;19984;-77
2021/01/12 12:26:07;;;;;;;;;;;10.40;90.90;;;;;;5145807;27;19969;-73
2021/01/12 12:28:33;;;;;;;;;;;10.60;91.50;;;;;;5147082;27;19923;-76
2021/01/12 12:30:59;;;;;;;;;;;10.40;91.70;;;;;;5147857;27;19927;-71
2021/01/12 12:33:26;;;;;;;;;;;10.60;92.10;;;;;;5124083;27;19938;-79
2021/01/12 12:35:52;;;;;;;;;;;10.40;92.50;;;;;;5146321;27;19924;-80
2021/01/12 12:38:18;;;;;;;;;;;10.40;92.70;;;;;;5145963;27;19923;-73
2021/01/12 12:40:44;;;;;;;;;;;10.40;92.20;;;;;;5149506;27;19944;-77
2021/01/12 12:43:11;;;;;;;;;;;10.50;93.20;;;;;;5149998;27;19962;-75
2021/01/12 12:45:38;;;;;;;;;;;10.30;92.70;;;;;;5130977;27;19923;-71
2021/01/12 12:48:06;;;;;;;;;;;10.40;94.40;;;;;;5146312;27;19924;-74
2021/01/12 12:50:33;;;;;;;;;;;10.40;93.20;;;;;;5146839;27;19962;-76
2021/01/12 12:52:59;;;;;;;;;;;10.30;93.90;;;;;;5148097;27;19976;-73
2021/01/12 12:55:26;;;;;;;;;;;10.20;93.50;;;;;;5130813;27;20445;-75
2021/01/12 12:57:52;;;;;;;;;;;10.30;93.70;;;;;;5127933;27;19931;-71
2021/01/12 13:00:18;;;;;;;;;;;10.20;93.10;;;;;;5145880;27;19924;-72
2021/01/12 13:02:45;;;;;;;;;;;10.30;93.70;;;;;;5148624;27;19927;-70
2021/01/12 13:05:11;;;;;;;;;;;10.40;93.20;;;;;;5151073;27;19929;-72
2021/01/12 13:07:38;;;;;;;;;;;10.40;93.10;;;;;;5146164;27;20018;-72
2021/01/12 13:10:04;;;;;;;;;;;10.40;92.50;;;;;;5147874;27;19947;-78
2021/01/12 13:12:33;;;;;;;;;;;10.30;92.70;;;;;;5145650;27;19945;-78
2021/01/12 13:14:59;;;;;;;;;;;10.40;93.50;;;;;;5149466;27;19945;-74
2021/01/12 13:17:26;;;;;;;;;;;10.40;92.50;;;;;;5150054;28;19935;-75
2021/01/12 13:20:02;;;;;;;;;;;10.60;92.50;;;;;;5150524;28;19924;-74
2021/01/12 13:22:29;;;;;;;;;;;10.60;92.50;;;;;;5144576;28;19924;-78
2021/01/12 13:24:55;;;;;;;;;;;10.60;92.60;;;;;;5149538;28;20435;-74
2021/01/12 13:27:22;;;;;;;;;;;10.80;92.70;;;;;;5153813;28;19931;-76
2021/01/12 13:29:49;;;;;;;;;;;10.70;91.90;;;;;;5148138;28;19923;-72
2021/01/12 13:32:15;;;;;;;;;;;10.80;92.40;;;;;;5148378;28;19923;-75
2021/01/12 13:34:42;;;;;;;;;;;10.80;93.30;;;;;;5150584;28;20337;-70
2021/01/12 13:37:08;;;;;;;;;;;10.80;92.60;;;;;;5147300;28;19930;-74
2021/01/12 13:39:34;;;;;;;;;;;11.00;92.50;;;;;;5122986;28;20343;-74
2021/01/12 13:42:03;;;;;;;;;;;11.10;92.10;;;;;;5118419;28;19923;-78
2021/01/12 13:44:29;;;;;;;;;;;11.10;91.90;;;;;;5122459;28;19924;-79
2021/01/12 13:46:55;;;;;;;;;;;10.90;92.70;;;;;;5115896;28;19967;-79
2021/01/12 13:49:22;;;;;;;;;;;10.90;92.70;;;;;;5100474;28;19966;-78
2021/01/12 13:51:49;;;;;;;;;;;10.80;92.90;;;;;;5121635;28;19982;-79
2021/01/12 13:54:15;;;;;;;;;;;10.80;93.20;;;;;;5118265;28;19978;-79
2021/01/12 13:56:42;;;;;;;;;;;10.90;93.20;;;;;;5118328;28;19945;-77
2021/01/12 13:59:11;;;;;;;;;;;10.90;92.60;;;;;;5118667;28;19992;-79
2021/01/12 14:01:38;;;;;;;;;;;11.00;92.50;;;;;;5124536;27;20041;-78
2021/01/12 14:04:05;;;;;;;;;;;11.00;92.70;;;;;;5140983;27;19976;-78
2021/01/12 14:06:32;;;;;;;;;;;11.00;92.70;;;;;;5141167;27;19923;-78
2021/01/12 14:08:58;;;;;;;;;;;11.10;92.90;;;;;;5139930;27;20026;-74
2021/01/12 14:11:25;;;;;;;;;;;11.00;92.70;;;;;;5140165;27;19923;-75
2021/01/12 14:13:51;;;;;;;;;;;11.10;93.00;;;;;;5140121;27;19967;-73
2021/01/12 14:16:19;;;;;;;;;;;11.10;92.50;;;;;;5139306;27;20034;-78
2021/01/12 14:18:45;;;;;;;;;;;11.10;92.50;;;;;;5140194;27;19929;-78
2021/01/12 14:21:18;;;;;;;;;;;11.10;92.40;;;;;;5140233;27;19923;-75
2021/01/12 14:23:46;;;;;;;;;;;11.20;92.70;;;;;;5139008;27;19924;-78
2021/01/12 14:26:12;;;;;;;;;;;11.20;92.80;;;;;;5136912;27;19930;-77
2021/01/12 14:28:38;;;;;;;;;;;11.20;92.30;;;;;;5118733;27;19945;-72